CheckWX is a tool to help pilots better visualize weather data.  It is not intended as a substitute for an official pre-flight weather briefing.

12:19:17 UTC

EPRA METAR
Radom Military Air Base Airport
Poland
Current

19 mins ago

EPRA 251200Z 31011KT 8000 -SHRA SCT018CB BKN045 07/M00 Q1010
Observed
Mar-25 @ 12:00 UTC
Wind
  • 310° at 11 KTS
Visibility
7,998 meters
Flight Rules
MVFR
Conditions
Light Rain
Cloud Levels
  • Scattered at 1,800' AGL
  • Broken at 4,500' AGL
Temperature
C / 45°F
Dewpoint
C / 32°F
Humidity
61%
Altimeter
29.82" Hg
Pressure
1009.92 hPa
Previous

49 mins ago

EPRA 251130Z 31012KT CAVOK 09/M02 Q1009
Observed
Mar-25 @ 11:30 UTC
Wind
  • 310° at 12 KTS
Visibility
10,000+ meters
Flight Rules
VFR
Cloud Levels
  • Clear skies
Temperature
C / 48°F
Dewpoint
-2°C / 28°F
Humidity
46%
Altimeter
29.79" Hg
Pressure
1008.92 hPa
Previous

1 hour ago

EPRA 251100Z 33010KT CAVOK 10/M02 Q1009
Observed
Mar-25 @ 11:00 UTC
Wind
  • 330° at 10 KTS
Visibility
10,000+ meters
Flight Rules
VFR
Cloud Levels
  • Clear skies
Temperature
10°C / 50°F
Dewpoint
-2°C / 28°F
Humidity
43%
Altimeter
29.79" Hg
Pressure
1008.92 hPa